Pagrindinis puslapis
METAR-TAF:

METAR-TAF

Oro uostai :

Homer, Aliaska, Jungtinės Amerikos Valstijos

platuma: 59-39N, ilguma: 151-29W, Aukštis: 26 m

Dabartinis oras

Ataskaita buvo paskelbta 1 valandą ir 14 minutes, ne 15:50 UTC
Vėjas 8 kt iš Rytų/Šiaurės Rytų
Temperatūra 2°C
Drėgmė 69%
Slėgis 1027 hPa
Matomumas: 16.1 km
Mažai debesys ne aukštis 6000 ft

METAR: PAHO 221550Z 06008KT 10SM FEW060 02/M03 A3032

Laikas: 09:04 (17:04 UTC)

Prognozė

Ataskaita buvo paskelbta 5 valandos ir 27 minutes, ne 11:37 UTC
Prognozė galioja nuo 22 metu 12 UTC su 23 metu 12 UTC
Vėjas 10 kt iš Rytų/Šiaurės Rytų
Matomumas: 10 km
Išsisklaidę debesys ne aukštis 25000 ft
Nuo 22 metu 2200 UTC
Vėjas 12 kt iš Rytų/Šiaurės Rytų su gūsio iki 20 kt
Matomumas: 10 km
Apsiniaukę ne aukštis 25000 ft

TAF: PAHO 221137Z 2212/2312 06010KT P6SM SCT250 FM222200 07012G20KT P6SM OVC250

Orai ataskaitas ir orų prognozės (METAR, TAF).

turimą stotys yra geltonos ir raudonos taškus žemėlapyje.

Perkelti pele per norėdami pamatyti stoties vardą.

Tada spustelėkite, norėdami matyti oro stebėjimo ir prognozės.

Norėdami pakeisti žemėlapį: spustelėkite ant žalios mygtukų su juodo kryžiaus žemyn,; žalią mygtuką su brūkšneliu, jei norite nutolinti; arba žalių rodyklių gretimoms žemėlapius.


METAR-TAF: